Hovedside
METAR-TAF:

METAR-TAF

Lufthavner :

Gällivare, Sverige

Gällivare lufthavn

breddegrad: 67-09N, lengdegrad: 020-39E, høyde over havet: 359 m

Gjeldene værobservasjon

Denne rapporten ble laget for 25 minutter siden, klokken 19:50 UTC
Vind 7 kt fra Nord
Temperatur 2°C
Luftfuktighet 87%
Trykk 1008 hPa
Sikt 10 km eller mer
Overskyet i en høyde av 1200 ft

METAR: ESNG 281950Z 35007KT 9999 OVC012 02/M00 Q1008

Tid: 22:15 (20:15 UTC)

Varsel

Denne rapporten ble laget for 2 timer og 45 minutter siden, klokken 17:30 UTC
Varsel gyldig fra 28. klokken 18 UTC til 28. klokken 22 UTC
Vind 5 kt fra Nordøst
Sikt 10 km eller mer
Spredte skyer i en høyde av 1300 ft
Brutte skyer i en høyde av 2000 ft
Sannsynlighet 40%
fra 28. klokken 18 UTC til 28. klokken 22 UTC
Sikt: 2500 m
Brutte skyer i en høyde av 1300 ft
dis

TAF: ESNG 281730Z 2818/2822 05005KT 9999 SCT013 BKN020 PROB40 2818/2822 2500 BR BKN013

Værobservasjoner og værvarsel for over 4000 flyplasser (METAR- og TAF-rapporter).

Tilgjengelige stasjoner er representert av de røde og gule prikkene på kartet.

Hold musepekeren over prikken for å se navnet på stasjonen.

Klikk så for å se værobservasjoner og -varsler.

For å forandre kartet kan du klikke på den grønne knappen med svart kryss for å zoome inn, på den grønne knappen med strek for å zoome ut, eller på de grønne pilene for å se tilstøtende kart.


METAR-TAF: